sensor_id;sensor_type;location;lat;lon;timestamp;temperature;humidity
29571;DHT22;16814;52.118;11.436;2023-07-13T00:02:16;17.60;99.90
29571;DHT22;16814;52.118;11.436;2023-07-13T00:04:42;17.50;99.90
29571;DHT22;16814;52.118;11.436;2023-07-13T00:07:08;17.60;99.90
29571;DHT22;16814;52.118;11.436;2023-07-13T00:09:34;17.40;99.90
29571;DHT22;16814;52.118;11.436;2023-07-13T00:12:01;17.40;99.90
29571;DHT22;16814;52.118;11.436;2023-07-13T00:14:28;17.40;99.90
29571;DHT22;16814;52.118;11.436;2023-07-13T00:16:55;17.20;99.90
29571;DHT22;16814;52.118;11.436;2023-07-13T00:19:20;17.10;99.90
29571;DHT22;16814;52.118;11.436;2023-07-13T00:21:47;17.20;99.90
29571;DHT22;16814;52.118;11.436;2023-07-13T00:24:15;17.30;99.90
29571;DHT22;16814;52.118;11.436;2023-07-13T00:26:42;17.20;99.90
29571;DHT22;16814;52.118;11.436;2023-07-13T00:29:11;17.30;99.90
29571;DHT22;16814;52.118;11.436;2023-07-13T00:31:37;17.30;99.90
29571;DHT22;16814;52.118;11.436;2023-07-13T00:34:03;17.30;99.90
29571;DHT22;16814;52.118;11.436;2023-07-13T00:36:30;17.30;99.90
29571;DHT22;16814;52.118;11.436;2023-07-13T00:38:56;17.50;99.90
29571;DHT22;16814;52.118;11.436;2023-07-13T00:41:21;16.70;99.90
29571;DHT22;16814;52.118;11.436;2023-07-13T00:43:47;16.50;99.90
29571;DHT22;16814;52.118;11.436;2023-07-13T00:46:32;16.60;99.90
29571;DHT22;16814;52.118;11.436;2023-07-13T00:49:01;16.40;99.90
29571;DHT22;16814;52.118;11.436;2023-07-13T00:51:36;16.10;99.90
29571;DHT22;16814;52.118;11.436;2023-07-13T00:54:06;15.80;99.90
29571;DHT22;16814;52.118;11.436;2023-07-13T00:56:33;15.60;99.90
29571;DHT22;16814;52.118;11.436;2023-07-13T00:59:00;15.30;99.90
29571;DHT22;16814;52.118;11.436;2023-07-13T01:01:27;15.20;99.90
29571;DHT22;16814;52.118;11.436;2023-07-13T01:03:53;15.20;99.90
29571;DHT22;16814;52.118;11.436;2023-07-13T01:06:19;15.30;99.90
29571;DHT22;16814;52.118;11.436;2023-07-13T01:08:45;15.80;99.90
29571;DHT22;16814;52.118;11.436;2023-07-13T01:11:10;16.10;99.90
29571;DHT22;16814;52.118;11.436;2023-07-13T01:13:36;16.40;99.90
29571;DHT22;16814;52.118;11.436;2023-07-13T01:16:11;16.50;99.90
29571;DHT22;16814;52.118;11.436;2023-07-13T01:18:38;16.80;99.90
29571;DHT22;16814;52.118;11.436;2023-07-13T01:21:04;16.80;99.90
29571;DHT22;16814;52.118;11.436;2023-07-13T01:23:31;16.90;99.90
29571;DHT22;16814;52.118;11.436;2023-07-13T01:25:58;17.00;99.90
29571;DHT22;16814;52.118;11.436;2023-07-13T01:28:25;17.00;99.90
29571;DHT22;16814;52.118;11.436;2023-07-13T01:30:53;17.20;99.90
29571;DHT22;16814;52.118;11.436;2023-07-13T01:33:19;17.20;99.90
29571;DHT22;16814;52.118;11.436;2023-07-13T01:35:45;17.20;99.90
29571;DHT22;16814;52.118;11.436;2023-07-13T01:38:13;17.30;99.90
29571;DHT22;16814;52.118;11.436;2023-07-13T01:40:39;17.30;99.90
29571;DHT22;16814;52.118;11.436;2023-07-13T01:43:05;17.30;99.90
29571;DHT22;16814;52.118;11.436;2023-07-13T01:45:31;17.30;99.90
29571;DHT22;16814;52.118;11.436;2023-07-13T01:47:57;17.20;99.90
29571;DHT22;16814;52.118;11.436;2023-07-13T01:50:24;17.10;99.90
29571;DHT22;16814;52.118;11.436;2023-07-13T01:52:49;17.00;99.90
29571;DHT22;16814;52.118;11.436;2023-07-13T01:55:15;17.00;99.90
29571;DHT22;16814;52.118;11.436;2023-07-13T01:57:41;16.90;99.90
29571;DHT22;16814;52.118;11.436;2023-07-13T02:00:09;16.80;99.90
29571;DHT22;16814;52.118;11.436;2023-07-13T02:02:34;16.80;99.90
29571;DHT22;16814;52.118;11.436;2023-07-13T02:05:00;16.80;99.90
29571;DHT22;16814;52.118;11.436;2023-07-13T02:07:26;16.80;99.90
29571;DHT22;16814;52.118;11.436;2023-07-13T02:09:51;16.70;99.90
29571;DHT22;16814;52.118;11.436;2023-07-13T02:12:17;17.00;99.90
29571;DHT22;16814;52.118;11.436;2023-07-13T02:14:42;17.00;99.90
29571;DHT22;16814;52.118;11.436;2023-07-13T02:17:09;17.10;99.90
29571;DHT22;16814;52.118;11.436;2023-07-13T02:19:35;17.10;99.90
29571;DHT22;16814;52.118;11.436;2023-07-13T02:22:01;17.20;99.90
29571;DHT22;16814;52.118;11.436;2023-07-13T02:24:27;17.20;99.90
29571;DHT22;16814;52.118;11.436;2023-07-13T02:26:53;17.10;99.90
29571;DHT22;16814;52.118;11.436;2023-07-13T02:29:18;17.20;99.90
29571;DHT22;16814;52.118;11.436;2023-07-13T02:31:44;17.20;99.90
29571;DHT22;16814;52.118;11.436;2023-07-13T02:34:09;17.20;99.90
29571;DHT22;16814;52.118;11.436;2023-07-13T02:36:35;17.10;99.90
29571;DHT22;16814;52.118;11.436;2023-07-13T02:39:02;17.10;99.90
29571;DHT22;16814;52.118;11.436;2023-07-13T02:41:28;17.10;99.90
29571;DHT22;16814;52.118;11.436;2023-07-13T02:43:54;17.10;99.90
29571;DHT22;16814;52.118;11.436;2023-07-13T02:46:28;17.10;99.90
29571;DHT22;16814;52.118;11.436;2023-07-13T02:48:54;17.10;99.90
29571;DHT22;16814;52.118;11.436;2023-07-13T02:51:19;17.10;99.90
29571;DHT22;16814;52.118;11.436;2023-07-13T02:53:45;17.10;99.90
29571;DHT22;16814;52.118;11.436;2023-07-13T02:56:10;17.10;99.90
29571;DHT22;16814;52.118;11.436;2023-07-13T02:58:36;17.10;99.90
29571;DHT22;16814;52.118;11.436;2023-07-13T03:01:10;17.00;99.90
29571;DHT22;16814;52.118;11.436;2023-07-13T03:03:36;17.10;99.90
29571;DHT22;16814;52.118;11.436;2023-07-13T03:06:03;17.00;99.90
29571;DHT22;16814;52.118;11.436;2023-07-13T03:08:30;17.00;99.90
29571;DHT22;16814;52.118;11.436;2023-07-13T03:11:13;17.00;99.90
29571;DHT22;16814;52.118;11.436;2023-07-13T03:13:40;17.00;99.90
29571;DHT22;16814;52.118;11.436;2023-07-13T03:16:06;16.90;99.90
29571;DHT22;16814;52.118;11.436;2023-07-13T03:18:32;16.80;99.90
29571;DHT22;16814;52.118;11.436;2023-07-13T03:20:58;16.80;99.90
29571;DHT22;16814;52.118;11.436;2023-07-13T03:23:23;16.90;99.90
29571;DHT22;16814;52.118;11.436;2023-07-13T03:26:00;17.00;99.90
29571;DHT22;16814;52.118;11.436;2023-07-13T03:28:26;17.00;99.90
29571;DHT22;16814;52.118;11.436;2023-07-13T03:31:06;17.00;99.90
29571;DHT22;16814;52.118;11.436;2023-07-13T03:33:32;17.00;99.90
29571;DHT22;16814;52.118;11.436;2023-07-13T03:35:58;17.10;99.90
29571;DHT22;16814;52.118;11.436;2023-07-13T03:38:24;17.20;99.90
29571;DHT22;16814;52.118;11.436;2023-07-13T03:40:50;17.20;99.90
29571;DHT22;16814;52.118;11.436;2023-07-13T03:43:15;17.20;99.90
29571;DHT22;16814;52.118;11.436;2023-07-13T03:45:41;17.20;99.90
29571;DHT22;16814;52.118;11.436;2023-07-13T03:48:07;17.20;99.90
29571;DHT22;16814;52.118;11.436;2023-07-13T03:50:32;17.20;99.90
29571;DHT22;16814;52.118;11.436;2023-07-13T03:52:59;17.20;99.90
29571;DHT22;16814;52.118;11.436;2023-07-13T03:55:25;17.20;99.90
29571;DHT22;16814;52.118;11.436;2023-07-13T03:57:57;17.20;99.90
29571;DHT22;16814;52.118;11.436;2023-07-13T04:00:23;17.40;99.90
29571;DHT22;16814;52.118;11.436;2023-07-13T04:02:49;17.40;99.90
29571;DHT22;16814;52.118;11.436;2023-07-13T04:05:15;17.40;99.90
29571;DHT22;16814;52.118;11.436;2023-07-13T04:07:40;17.70;99.90
29571;DHT22;16814;52.118;11.436;2023-07-13T04:10:06;17.40;99.90
29571;DHT22;16814;52.118;11.436;2023-07-13T04:12:32;17.40;99.90
29571;DHT22;16814;52.118;11.436;2023-07-13T04:14:57;17.30;99.90
29571;DHT22;16814;52.118;11.436;2023-07-13T04:17:23;17.10;99.90
29571;DHT22;16814;52.118;11.436;2023-07-13T04:19:49;17.20;99.90
29571;DHT22;16814;52.118;11.436;2023-07-13T04:22:14;17.00;99.90
29571;DHT22;16814;52.118;11.436;2023-07-13T04:24:40;16.80;99.90
29571;DHT22;16814;52.118;11.436;2023-07-13T04:27:06;16.60;99.90
29571;DHT22;16814;52.118;11.436;2023-07-13T04:29:32;16.40;99.90
29571;DHT22;16814;52.118;11.436;2023-07-13T04:31:57;16.20;99.90
29571;DHT22;16814;52.118;11.436;2023-07-13T04:34:23;16.00;99.90
29571;DHT22;16814;52.118;11.436;2023-07-13T04:36:49;16.00;99.90
29571;DHT22;16814;52.118;11.436;2023-07-13T04:39:15;16.00;99.90
29571;DHT22;16814;52.118;11.436;2023-07-13T04:41:41;16.70;99.90
29571;DHT22;16814;52.118;11.436;2023-07-13T04:44:07;16.20;99.90
29571;DHT22;16814;52.118;11.436;2023-07-13T04:46:32;16.20;99.90
29571;DHT22;16814;52.118;11.436;2023-07-13T04:48:58;16.30;99.90
29571;DHT22;16814;52.118;11.436;2023-07-13T04:51:24;16.40;99.90
29571;DHT22;16814;52.118;11.436;2023-07-13T04:53:50;16.50;99.90
29571;DHT22;16814;52.118;11.436;2023-07-13T04:56:15;16.80;99.90
29571;DHT22;16814;52.118;11.436;2023-07-13T04:58:41;16.80;99.90
29571;DHT22;16814;52.118;11.436;2023-07-13T05:01:07;17.10;99.90
29571;DHT22;16814;52.118;11.436;2023-07-13T05:03:34;17.30;99.90
29571;DHT22;16814;52.118;11.436;2023-07-13T05:06:03;17.40;99.90
29571;DHT22;16814;52.118;11.436;2023-07-13T05:08:28;17.40;99.90
29571;DHT22;16814;52.118;11.436;2023-07-13T05:10:54;17.40;99.90
29571;DHT22;16814;52.118;11.436;2023-07-13T05:13:20;17.40;99.90
29571;DHT22;16814;52.118;11.436;2023-07-13T05:15:54;17.40;99.90
29571;DHT22;16814;52.118;11.436;2023-07-13T05:18:20;17.40;99.90
29571;DHT22;16814;52.118;11.436;2023-07-13T05:20:46;17.50;99.90
29571;DHT22;16814;52.118;11.436;2023-07-13T05:23:11;17.60;99.90
29571;DHT22;16814;52.118;11.436;2023-07-13T05:25:37;17.50;99.90
29571;DHT22;16814;52.118;11.436;2023-07-13T05:28:02;17.50;99.90
29571;DHT22;16814;52.118;11.436;2023-07-13T05:30:28;17.60;99.90
29571;DHT22;16814;52.118;11.436;2023-07-13T05:32:53;17.50;99.90
29571;DHT22;16814;52.118;11.436;2023-07-13T05:35:19;17.70;99.90
29571;DHT22;16814;52.118;11.436;2023-07-13T05:37:45;17.80;99.90
29571;DHT22;16814;52.118;11.436;2023-07-13T05:40:10;17.80;99.90
29571;DHT22;16814;52.118;11.436;2023-07-13T05:42:36;17.90;99.90
29571;DHT22;16814;52.118;11.436;2023-07-13T05:45:02;17.90;99.90
29571;DHT22;16814;52.118;11.436;2023-07-13T05:47:27;18.00;99.90
29571;DHT22;16814;52.118;11.436;2023-07-13T05:49:53;18.00;99.90
29571;DHT22;16814;52.118;11.436;2023-07-13T05:52:19;18.00;99.90
29571;DHT22;16814;52.118;11.436;2023-07-13T05:54:45;18.10;99.90
29571;DHT22;16814;52.118;11.436;2023-07-13T05:57:10;18.00;99.90
29571;DHT22;16814;52.118;11.436;2023-07-13T05:59:36;18.00;99.90
29571;DHT22;16814;52.118;11.436;2023-07-13T06:02:02;18.00;99.90
29571;DHT22;16814;52.118;11.436;2023-07-13T06:04:28;18.60;99.90
29571;DHT22;16814;52.118;11.436;2023-07-13T06:06:53;19.70;99.90
29571;DHT22;16814;52.118;11.436;2023-07-13T06:09:19;20.60;99.90
29571;DHT22;16814;52.118;11.436;2023-07-13T06:11:44;21.20;99.90
29571;DHT22;16814;52.118;11.436;2023-07-13T06:14:10;21.50;99.90
29571;DHT22;16814;52.118;11.436;2023-07-13T06:16:36;21.70;99.90
29571;DHT22;16814;52.118;11.436;2023-07-13T06:19:01;22.10;99.90
29571;DHT22;16814;52.118;11.436;2023-07-13T06:21:27;22.50;99.90
29571;DHT22;16814;52.118;11.436;2023-07-13T06:23:52;22.70;99.90
29571;DHT22;16814;52.118;11.436;2023-07-13T06:26:19;22.60;99.90
29571;DHT22;16814;52.118;11.436;2023-07-13T06:28:45;22.70;99.90
29571;DHT22;16814;52.118;11.436;2023-07-13T06:31:12;22.20;99.90
29571;DHT22;16814;52.118;11.436;2023-07-13T06:33:39;22.10;99.90
29571;DHT22;16814;52.118;11.436;2023-07-13T06:36:06;22.00;99.90
29571;DHT22;16814;52.118;11.436;2023-07-13T06:38:33;22.10;99.90
29571;DHT22;16814;52.118;11.436;2023-07-13T06:40:58;22.10;99.90
29571;DHT22;16814;52.118;11.436;2023-07-13T06:43:24;22.20;99.90
29571;DHT22;16814;52.118;11.436;2023-07-13T06:45:51;22.10;99.90
29571;DHT22;16814;52.118;11.436;2023-07-13T06:48:18;22.30;99.90
29571;DHT22;16814;52.118;11.436;2023-07-13T06:50:44;22.40;99.90
29571;DHT22;16814;52.118;11.436;2023-07-13T06:53:11;22.50;99.90
29571;DHT22;16814;52.118;11.436;2023-07-13T06:55:37;22.50;99.90
29571;DHT22;16814;52.118;11.436;2023-07-13T06:58:03;22.40;99.90
29571;DHT22;16814;52.118;11.436;2023-07-13T07:00:29;22.50;99.90
29571;DHT22;16814;52.118;11.436;2023-07-13T07:02:54;22.50;99.90
29571;DHT22;16814;52.118;11.436;2023-07-13T07:05:20;22.80;99.90
29571;DHT22;16814;52.118;11.436;2023-07-13T07:07:47;22.90;99.90
29571;DHT22;16814;52.118;11.436;2023-07-13T07:10:13;23.20;99.90
29571;DHT22;16814;52.118;11.436;2023-07-13T07:12:39;23.20;99.90
29571;DHT22;16814;52.118;11.436;2023-07-13T07:15:05;23.30;99.90
29571;DHT22;16814;52.118;11.436;2023-07-13T07:17:30;23.40;99.60
29571;DHT22;16814;52.118;11.436;2023-07-13T07:19:56;23.50;99.30
29571;DHT22;16814;52.118;11.436;2023-07-13T07:22:22;23.60;99.10
29571;DHT22;16814;52.118;11.436;2023-07-13T07:24:47;23.70;99.00
29571;DHT22;16814;52.118;11.436;2023-07-13T07:27:13;23.90;98.40
29571;DHT22;16814;52.118;11.436;2023-07-13T07:29:39;24.00;97.90
29571;DHT22;16814;52.118;11.436;2023-07-13T07:32:05;24.20;97.60
29571;DHT22;16814;52.118;11.436;2023-07-13T07:34:31;24.40;97.50
29571;DHT22;16814;52.118;11.436;2023-07-13T07:36:59;24.70;97.30
29571;DHT22;16814;52.118;11.436;2023-07-13T07:39:26;24.80;96.90
29571;DHT22;16814;52.118;11.436;2023-07-13T07:41:52;25.10;96.20
29571;DHT22;16814;52.118;11.436;2023-07-13T07:44:17;25.20;95.40
29571;DHT22;16814;52.118;11.436;2023-07-13T07:46:43;25.20;95.40
29571;DHT22;16814;52.118;11.436;2023-07-13T07:49:09;25.40;95.60
29571;DHT22;16814;52.118;11.436;2023-07-13T07:51:34;25.40;94.60
29571;DHT22;16814;52.118;11.436;2023-07-13T07:54:00;25.30;94.20
29571;DHT22;16814;52.118;11.436;2023-07-13T07:56:25;25.50;94.40
29571;DHT22;16814;52.118;11.436;2023-07-13T07:58:51;25.60;93.90
29571;DHT22;16814;52.118;11.436;2023-07-13T08:01:17;25.90;93.90
29571;DHT22;16814;52.118;11.436;2023-07-13T08:03:42;25.70;93.80
29571;DHT22;16814;52.118;11.436;2023-07-13T08:06:08;25.70;93.90
29571;DHT22;16814;52.118;11.436;2023-07-13T08:08:35;25.50;91.80
29571;DHT22;16814;52.118;11.436;2023-07-13T08:11:06;25.30;91.00
29571;DHT22;16814;52.118;11.436;2023-07-13T08:13:32;25.30;90.70
29571;DHT22;16814;52.118;11.436;2023-07-13T08:15:58;25.30;91.50
29571;DHT22;16814;52.118;11.436;2023-07-13T08:18:25;25.40;91.30
29571;DHT22;16814;52.118;11.436;2023-07-13T08:20:50;25.80;90.50
29571;DHT22;16814;52.118;11.436;2023-07-13T08:23:16;25.80;90.70
29571;DHT22;16814;52.118;11.436;2023-07-13T08:25:42;26.00;90.70
29571;DHT22;16814;52.118;11.436;2023-07-13T08:28:08;25.90;91.00
29571;DHT22;16814;52.118;11.436;2023-07-13T08:30:34;26.00;90.80
29571;DHT22;16814;52.118;11.436;2023-07-13T08:32:59;25.90;90.40
29571;DHT22;16814;52.118;11.436;2023-07-13T08:35:25;25.50;90.10
29571;DHT22;16814;52.118;11.436;2023-07-13T08:37:51;25.20;90.40
29571;DHT22;16814;52.118;11.436;2023-07-13T08:40:18;25.00;90.10
29571;DHT22;16814;52.118;11.436;2023-07-13T08:42:49;24.90;90.40
29571;DHT22;16814;52.118;11.436;2023-07-13T08:45:22;24.80;90.30
29571;DHT22;16814;52.118;11.436;2023-07-13T08:48:02;24.80;90.20
29571;DHT22;16814;52.118;11.436;2023-07-13T08:50:33;24.80;90.80
29571;DHT22;16814;52.118;11.436;2023-07-13T08:53:02;24.60;91.60
29571;DHT22;16814;52.118;11.436;2023-07-13T08:55:33;24.50;92.10
29571;DHT22;16814;52.118;11.436;2023-07-13T08:58:16;24.40;92.00
29571;DHT22;16814;52.118;11.436;2023-07-13T09:03:47;24.80;91.70
29571;DHT22;16814;52.118;11.436;2023-07-13T09:06:16;25.10;91.80
29571;DHT22;16814;52.118;11.436;2023-07-13T09:08:59;25.50;91.20
29571;DHT22;16814;52.118;11.436;2023-07-13T09:11:41;25.80;89.50
29571;DHT22;16814;52.118;11.436;2023-07-13T09:14:26;26.10;88.30
29571;DHT22;16814;52.118;11.436;2023-07-13T09:16:57;26.00;85.10
29571;DHT22;16814;52.118;11.436;2023-07-13T09:19:30;25.80;86.70
29571;DHT22;16814;52.118;11.436;2023-07-13T09:21:59;25.50;87.30
29571;DHT22;16814;52.118;11.436;2023-07-13T09:24:50;25.30;88.10
29571;DHT22;16814;52.118;11.436;2023-07-13T09:27:21;25.50;87.80
29571;DHT22;16814;52.118;11.436;2023-07-13T09:30:03;25.50;85.70
29571;DHT22;16814;52.118;11.436;2023-07-13T09:32:31;25.50;86.00
29571;DHT22;16814;52.118;11.436;2023-07-13T09:34:58;25.10;84.80
29571;DHT22;16814;52.118;11.436;2023-07-13T09:37:30;25.10;87.40
29571;DHT22;16814;52.118;11.436;2023-07-13T09:39:56;25.10;85.60
29571;DHT22;16814;52.118;11.436;2023-07-13T09:42:23;25.10;84.40
29571;DHT22;16814;52.118;11.436;2023-07-13T09:44:53;25.50;85.00
29571;DHT22;16814;52.118;11.436;2023-07-13T09:50:00;25.80;83.20
29571;DHT22;16814;52.118;11.436;2023-07-13T09:52:27;25.50;81.90
29571;DHT22;16814;52.118;11.436;2023-07-13T09:54:54;24.90;83.70
29571;DHT22;16814;52.118;11.436;2023-07-13T09:57:26;24.60;83.50
29571;DHT22;16814;52.118;11.436;2023-07-13T09:59:53;24.20;84.90
29571;DHT22;16814;52.118;11.436;2023-07-13T10:02:33;24.00;86.20
29571;DHT22;16814;52.118;11.436;2023-07-13T10:05:05;24.00;86.70
29571;DHT22;16814;52.118;11.436;2023-07-13T10:07:32;24.10;87.30
29571;DHT22;16814;52.118;11.436;2023-07-13T10:10:03;24.20;87.00
29571;DHT22;16814;52.118;11.436;2023-07-13T10:12:30;24.40;87.00
29571;DHT22;16814;52.118;11.436;2023-07-13T10:15:02;24.40;86.10
29571;DHT22;16814;52.118;11.436;2023-07-13T10:17:31;24.60;86.60
29571;DHT22;16814;52.118;11.436;2023-07-13T10:20:02;24.90;86.90
29571;DHT22;16814;52.118;11.436;2023-07-13T10:25:16;25.20;87.70
29571;DHT22;16814;52.118;11.436;2023-07-13T10:27:44;25.50;87.40
29571;DHT22;16814;52.118;11.436;2023-07-13T10:30:32;25.70;86.80
29571;DHT22;16814;52.118;11.436;2023-07-13T10:33:02;25.90;87.20
29571;DHT22;16814;52.118;11.436;2023-07-13T10:35:30;25.60;85.50
29571;DHT22;16814;52.118;11.436;2023-07-13T10:38:10;25.20;85.00
29571;DHT22;16814;52.118;11.436;2023-07-13T10:40:43;25.00;86.80
29571;DHT22;16814;52.118;11.436;2023-07-13T10:43:28;25.00;87.50
29571;DHT22;16814;52.118;11.436;2023-07-13T10:45:59;24.90;85.70
29571;DHT22;16814;52.118;11.436;2023-07-13T10:48:26;25.20;86.20
29571;DHT22;16814;52.118;11.436;2023-07-13T10:50:53;25.40;86.00
29571;DHT22;16814;52.118;11.436;2023-07-13T10:53:38;25.20;82.40
29571;DHT22;16814;52.118;11.436;2023-07-13T10:56:24;25.00;81.90
29571;DHT22;16814;52.118;11.436;2023-07-13T11:01:54;25.00;82.20
29571;DHT22;16814;52.118;11.436;2023-07-13T11:04:20;25.10;83.60
29571;DHT22;16814;52.118;11.436;2023-07-13T11:06:48;25.30;82.50
29571;DHT22;16814;52.118;11.436;2023-07-13T11:09:33;25.20;82.20
29571;DHT22;16814;52.118;11.436;2023-07-13T11:12:06;25.20;81.60
29571;DHT22;16814;52.118;11.436;2023-07-13T11:15:00;25.10;82.30
29571;DHT22;16814;52.118;11.436;2023-07-13T11:17:48;24.90;83.20
29571;DHT22;16814;52.118;11.436;2023-07-13T11:27:52;24.50;86.70
29571;DHT22;16814;52.118;11.436;2023-07-13T11:30:22;24.50;85.70
29571;DHT22;16814;52.118;11.436;2023-07-13T11:32:52;24.50;85.30
29571;DHT22;16814;52.118;11.436;2023-07-13T11:35:28;24.60;85.40
29571;DHT22;16814;52.118;11.436;2023-07-13T11:37:53;24.70;86.00
29571;DHT22;16814;52.118;11.436;2023-07-13T11:40:22;24.60;85.70
29571;DHT22;16814;52.118;11.436;2023-07-13T11:42:52;24.80;87.20
29571;DHT22;16814;52.118;11.436;2023-07-13T11:45:22;25.00;85.80
29571;DHT22;16814;52.118;11.436;2023-07-13T11:47:49;25.10;84.00
29571;DHT22;16814;52.118;11.436;2023-07-13T11:50:19;25.00;83.80
29571;DHT22;16814;52.118;11.436;2023-07-13T11:52:45;24.80;83.70
29571;DHT22;16814;52.118;11.436;2023-07-13T11:55:16;24.80;83.80
29571;DHT22;16814;52.118;11.436;2023-07-13T11:57:49;24.70;84.10
29571;DHT22;16814;52.118;11.436;2023-07-13T12:00:18;24.60;84.50
29571;DHT22;16814;52.118;11.436;2023-07-13T12:02:48;24.50;82.80
29571;DHT22;16814;52.118;11.436;2023-07-13T12:05:16;24.50;82.20
29571;DHT22;16814;52.118;11.436;2023-07-13T12:07:49;24.40;82.70
29571;DHT22;16814;52.118;11.436;2023-07-13T12:10:24;24.40;82.70
29571;DHT22;16814;52.118;11.436;2023-07-13T12:12:59;24.40;83.50
29571;DHT22;16814;52.118;11.436;2023-07-13T12:15:51;24.30;84.00
29571;DHT22;16814;52.118;11.436;2023-07-13T12:18:21;24.50;85.10
29571;DHT22;16814;52.118;11.436;2023-07-13T12:20:51;24.50;85.20
29571;DHT22;16814;52.118;11.436;2023-07-13T12:23:28;24.70;85.40
29571;DHT22;16814;52.118;11.436;2023-07-13T12:25:55;24.70;84.60
29571;DHT22;16814;52.118;11.436;2023-07-13T12:28:22;24.60;83.90
29571;DHT22;16814;52.118;11.436;2023-07-13T12:30:49;24.60;83.10
29571;DHT22;16814;52.118;11.436;2023-07-13T12:33:27;24.50;81.90
29571;DHT22;16814;52.118;11.436;2023-07-13T12:35:53;24.50;82.70
29571;DHT22;16814;52.118;11.436;2023-07-13T12:38:19;24.50;81.90
29571;DHT22;16814;52.118;11.436;2023-07-13T12:40:49;24.70;82.60
29571;DHT22;16814;52.118;11.436;2023-07-13T12:43:16;24.60;81.30
29571;DHT22;16814;52.118;11.436;2023-07-13T12:48:29;24.60;82.50
29571;DHT22;16814;52.118;11.436;2023-07-13T12:50:56;24.70;83.20
29571;DHT22;16814;52.118;11.436;2023-07-13T12:53:30;24.60;81.60
29571;DHT22;16814;52.118;11.436;2023-07-13T12:56:02;24.50;80.00
29571;DHT22;16814;52.118;11.436;2023-07-13T12:58:40;24.50;81.90
29571;DHT22;16814;52.118;11.436;2023-07-13T13:01:12;24.50;81.70
29571;DHT22;16814;52.118;11.436;2023-07-13T13:08:46;24.60;80.30
29571;DHT22;16814;52.118;11.436;2023-07-13T13:11:14;24.60;79.70
29571;DHT22;16814;52.118;11.436;2023-07-13T13:13:42;24.50;78.20
29571;DHT22;16814;52.118;11.436;2023-07-13T13:18:53;24.40;79.90
29571;DHT22;16814;52.118;11.436;2023-07-13T13:21:19;24.40;80.30
29571;DHT22;16814;52.118;11.436;2023-07-13T13:23:45;24.40;80.20
29571;DHT22;16814;52.118;11.436;2023-07-13T13:26:14;24.40;80.00
29571;DHT22;16814;52.118;11.436;2023-07-13T13:28:43;24.50;81.20
29571;DHT22;16814;52.118;11.436;2023-07-13T13:31:10;24.60;78.80
29571;DHT22;16814;52.118;11.436;2023-07-13T13:33:42;24.60;77.40
29571;DHT22;16814;52.118;11.436;2023-07-13T13:36:22;24.50;77.20
29571;DHT22;16814;52.118;11.436;2023-07-13T13:38:49;24.40;78.30
29571;DHT22;16814;52.118;11.436;2023-07-13T13:41:16;24.20;76.50
29571;DHT22;16814;52.118;11.436;2023-07-13T13:43:42;24.30;78.00
29571;DHT22;16814;52.118;11.436;2023-07-13T13:46:17;24.30;79.50
29571;DHT22;16814;52.118;11.436;2023-07-13T13:48:44;24.30;78.50
29571;DHT22;16814;52.118;11.436;2023-07-13T13:51:16;24.50;79.40
29571;DHT22;16814;52.118;11.436;2023-07-13T13:53:43;24.40;77.60
29571;DHT22;16814;52.118;11.436;2023-07-13T13:56:08;24.50;79.50
29571;DHT22;16814;52.118;11.436;2023-07-13T13:58:34;24.60;78.40
29571;DHT22;16814;52.118;11.436;2023-07-13T14:01:00;24.60;78.00
29571;DHT22;16814;52.118;11.436;2023-07-13T14:03:26;24.60;77.90
29571;DHT22;16814;52.118;11.436;2023-07-13T14:05:53;24.80;79.00
29571;DHT22;16814;52.118;11.436;2023-07-13T14:08:21;24.70;78.50
29571;DHT22;16814;52.118;11.436;2023-07-13T14:10:50;24.60;79.70
29571;DHT22;16814;52.118;11.436;2023-07-13T14:13:19;24.60;79.60
29571;DHT22;16814;52.118;11.436;2023-07-13T14:15:46;24.70;80.70
29571;DHT22;16814;52.118;11.436;2023-07-13T14:18:13;24.70;79.50
29571;DHT22;16814;52.118;11.436;2023-07-13T14:20:43;24.80;80.20
29571;DHT22;16814;52.118;11.436;2023-07-13T14:23:09;24.70;79.00
29571;DHT22;16814;52.118;11.436;2023-07-13T14:25:35;24.70;79.20
29571;DHT22;16814;52.118;11.436;2023-07-13T14:28:21;24.70;79.80
29571;DHT22;16814;52.118;11.436;2023-07-13T14:30:47;24.70;79.60
29571;DHT22;16814;52.118;11.436;2023-07-13T14:33:13;24.60;79.30
29571;DHT22;16814;52.118;11.436;2023-07-13T14:35:39;24.50;80.30
29571;DHT22;16814;52.118;11.436;2023-07-13T14:38:05;24.50;80.20
29571;DHT22;16814;52.118;11.436;2023-07-13T14:40:33;24.50;80.50
29571;DHT22;16814;52.118;11.436;2023-07-13T14:42:58;24.50;78.90
29571;DHT22;16814;52.118;11.436;2023-07-13T14:45:25;24.50;79.00
29571;DHT22;16814;52.118;11.436;2023-07-13T14:47:51;24.60;78.90
29571;DHT22;16814;52.118;11.436;2023-07-13T14:50:24;24.60;79.40
29571;DHT22;16814;52.118;11.436;2023-07-13T14:52:52;24.70;78.90
29571;DHT22;16814;52.118;11.436;2023-07-13T14:55:19;24.80;80.50
29571;DHT22;16814;52.118;11.436;2023-07-13T14:57:45;24.80;78.90
29571;DHT22;16814;52.118;11.436;2023-07-13T15:00:16;24.90;79.20
29571;DHT22;16814;52.118;11.436;2023-07-13T15:02:45;25.00;80.10
29571;DHT22;16814;52.118;11.436;2023-07-13T15:05:24;25.00;79.30
29571;DHT22;16814;52.118;11.436;2023-07-13T15:07:51;24.90;78.60
29571;DHT22;16814;52.118;11.436;2023-07-13T15:10:20;24.90;78.80
29571;DHT22;16814;52.118;11.436;2023-07-13T15:12:46;24.80;78.80
29571;DHT22;16814;52.118;11.436;2023-07-13T15:15:12;24.90;79.60
29571;DHT22;16814;52.118;11.436;2023-07-13T15:17:40;24.80;79.40
29571;DHT22;16814;52.118;11.436;2023-07-13T15:20:28;24.80;80.10
29571;DHT22;16814;52.118;11.436;2023-07-13T15:22:54;24.80;79.40
29571;DHT22;16814;52.118;11.436;2023-07-13T15:25:23;24.80;81.30
29571;DHT22;16814;52.118;11.436;2023-07-13T15:27:51;24.80;80.60
29571;DHT22;16814;52.118;11.436;2023-07-13T15:30:17;24.80;80.50
29571;DHT22;16814;52.118;11.436;2023-07-13T15:32:44;24.80;79.90
29571;DHT22;16814;52.118;11.436;2023-07-13T15:35:18;24.90;80.70
29571;DHT22;16814;52.118;11.436;2023-07-13T15:37:45;24.90;80.50
29571;DHT22;16814;52.118;11.436;2023-07-13T15:40:11;24.70;82.30
29571;DHT22;16814;52.118;11.436;2023-07-13T15:42:38;24.50;86.80
29571;DHT22;16814;52.118;11.436;2023-07-13T15:45:15;24.20;88.60
29571;DHT22;16814;52.118;11.436;2023-07-13T15:47:42;23.70;90.20
29571;DHT22;16814;52.118;11.436;2023-07-13T15:50:23;23.10;90.80
29571;DHT22;16814;52.118;11.436;2023-07-13T15:52:52;22.90;91.50